Time;durP1;ratioP1;P1;durP2;ratioP2;P2;SDS_P1;SDS_P2;PMS_P1;PMS_P2;Temp;Humidity;BMP_temperature;BMP_pressure;BME280_temperature;BME280_humidity;BME280_pressure;Samples;Min_cycle;Max_cycle;Signal;HPM_P1;HPM_P2
2022/10/29 00:00:48;;;;;;;8.05;1.90;;;;;;;;;;5015999;28;20029;-62
2022/10/29 00:03:14;;;;;;;8.10;1.55;;;;;;;;;;5016019;28;20113;-62
2022/10/29 00:05:40;;;;;;;6.85;2.45;;;;;;;;;;5015619;28;20520;-62
2022/10/29 00:08:06;;;;;;;8.95;1.40;;;;;;;;;;5015485;28;20109;-62
2022/10/29 00:10:33;;;;;;;13.63;1.92;;;;;;;;;;5015396;28;20042;-62
2022/10/29 00:13:02;;;;;;;6.50;1.80;;;;;;;;;;5015809;28;20041;-62
2022/10/29 00:15:28;;;;;;;12.65;1.95;;;;;;;;;;5015677;28;20037;-62
2022/10/29 00:17:54;;;;;;;9.60;1.70;;;;;;;;;;5015455;28;20053;-62
2022/10/29 00:20:20;;;;;;;8.93;1.92;;;;;;;;;;5015460;28;20026;-62
2022/10/29 00:22:47;;;;;;;10.52;1.70;;;;;;;;;;5023238;28;20021;-62
2022/10/29 00:25:13;;;;;;;12.20;1.95;;;;;;;;;;5035439;28;20029;-62
2022/10/29 00:27:39;;;;;;;4.55;1.42;;;;;;;;;;5034938;28;20037;-62
2022/10/29 00:30:05;;;;;;;10.52;1.92;;;;;;;;;;5035052;28;20021;-62
2022/10/29 00:32:31;;;;;;;9.95;1.88;;;;;;;;;;5015509;28;20105;-62
2022/10/29 00:34:57;;;;;;;4.22;1.65;;;;;;;;;;5015006;28;20043;-62
2022/10/29 00:37:23;;;;;;;8.60;1.75;;;;;;;;;;5014918;28;20014;-62
2022/10/29 00:39:49;;;;;;;13.82;1.92;;;;;;;;;;5015061;28;20022;-62
2022/10/29 00:42:16;;;;;;;9.93;1.88;;;;;;;;;;5014730;28;20041;-62
2022/10/29 00:44:43;;;;;;;8.77;2.10;;;;;;;;;;5014970;28;20471;-62
2022/10/29 00:47:21;;;;;;;9.70;2.15;;;;;;;;;;5015024;28;20107;-62
2022/10/29 00:49:49;;;;;;;9.25;1.67;;;;;;;;;;5014778;28;20390;-62
2022/10/29 00:52:17;;;;;;;10.63;1.88;;;;;;;;;;5033044;28;20029;-62
2022/10/29 00:54:44;;;;;;;6.05;2.53;;;;;;;;;;5025223;28;20040;-63
2022/10/29 00:57:14;;;;;;;13.75;2.67;;;;;;;;;;5014817;28;20030;-63
2022/10/29 00:59:41;;;;;;;10.90;1.80;;;;;;;;;;5014465;28;20030;-63
2022/10/29 01:02:07;;;;;;;8.98;1.90;;;;;;;;;;5019622;28;20026;-62
2022/10/29 01:04:33;;;;;;;11.65;2.47;;;;;;;;;;5034505;28;20112;-62
2022/10/29 01:06:59;;;;;;;9.77;1.70;;;;;;;;;;5034059;28;20036;-62
2022/10/29 01:09:26;;;;;;;8.27;1.70;;;;;;;;;;5034008;28;20120;-62
2022/10/29 01:11:58;;;;;;;13.00;1.88;;;;;;;;;;5034015;28;20029;-62
2022/10/29 01:14:30;;;;;;;12.20;1.98;;;;;;;;;;5014395;28;20021;-62
2022/10/29 01:17:02;;;;;;;9.68;1.58;;;;;;;;;;5018311;28;20021;-62
2022/10/29 01:19:28;;;;;;;8.15;2.47;;;;;;;;;;5026121;28;20072;-62
2022/10/29 01:22:04;;;;;;;12.55;2.42;;;;;;;;;;5013663;28;20042;-62
2022/10/29 01:24:42;;;;;;;10.48;2.58;;;;;;;;;;5014409;28;20041;-62
2022/10/29 01:27:08;;;;;;;15.25;2.47;;;;;;;;;;5014659;28;20440;-62
2022/10/29 01:29:56;;;;;;;10.00;2.60;;;;;;;;;;5014390;28;20037;-62
2022/10/29 01:32:31;;;;;;;12.00;3.72;;;;;;;;;;4994529;28;20049;-62
2022/10/29 01:34:57;;;;;;;12.98;3.53;;;;;;;;;;4994008;28;20077;-62
2022/10/29 01:37:53;;;;;;;8.50;2.22;;;;;;;;;;4994540;28;20022;-62
2022/10/29 01:40:27;;;;;;;10.30;3.92;;;;;;;;;;4993931;28;20042;-62
2022/10/29 01:42:58;;;;;;;8.10;2.40;;;;;;;;;;5002369;28;20033;-62
2022/10/29 01:45:48;;;;;;;10.90;2.92;;;;;;;;;;5013872;28;20034;-62
2022/10/29 01:48:17;;;;;;;15.95;3.53;;;;;;;;;;5010910;28;20077;-62
2022/10/29 01:50:45;;;;;;;10.13;3.22;;;;;;;;;;5013577;28;20501;-62
2022/10/29 01:53:11;;;;;;;15.55;3.53;;;;;;;;;;5024349;28;20038;-62
2022/10/29 01:55:37;;;;;;;12.43;3.42;;;;;;;;;;5033620;28;20384;-62
2022/10/29 01:58:04;;;;;;;12.48;2.95;;;;;;;;;;5033131;28;20516;-62
2022/10/29 02:00:34;;;;;;;13.90;2.90;;;;;;;;;;5033016;28;20057;-62
2022/10/29 02:03:18;;;;;;;6.47;3.05;;;;;;;;;;5033391;28;20025;-62
2022/10/29 02:05:57;;;;;;;10.07;3.08;;;;;;;;;;5033299;28;20037;-62
2022/10/29 02:08:29;;;;;;;13.65;3.40;;;;;;;;;;5033212;28;20527;-62
2022/10/29 02:11:05;;;;;;;8.73;3.08;;;;;;;;;;5033004;28;20041;-62
2022/10/29 02:13:34;;;;;;;15.07;3.08;;;;;;;;;;5033092;28;20116;-62
2022/10/29 02:16:02;;;;;;;13.25;3.05;;;;;;;;;;5033153;28;20064;-62
2022/10/29 02:18:28;;;;;;;9.23;3.00;;;;;;;;;;5033074;28;20025;-62
2022/10/29 02:20:54;;;;;;;16.48;3.00;;;;;;;;;;5026730;28;20056;-62
2022/10/29 02:23:20;;;;;;;8.68;2.85;;;;;;;;;;5013436;28;20034;-62
2022/10/29 02:25:46;;;;;;;17.67;3.05;;;;;;;;;;5012529;28;20109;-62
2022/10/29 02:28:13;;;;;;;12.98;3.35;;;;;;;;;;5013181;28;20099;-62
2022/10/29 02:30:39;;;;;;;10.35;3.50;;;;;;;;;;5012985;28;20030;-63
2022/10/29 02:33:05;;;;;;;11.15;3.70;;;;;;;;;;5012818;28;20471;-62
2022/10/29 02:35:31;;;;;;;13.85;3.80;;;;;;;;;;5013832;28;20093;-62
2022/10/29 02:37:57;;;;;;;9.52;3.13;;;;;;;;;;5032700;28;20553;-62
2022/10/29 02:40:23;;;;;;;17.98;2.90;;;;;;;;;;5032979;28;20014;-62
2022/10/29 02:42:49;;;;;;;8.20;3.28;;;;;;;;;;5032820;28;20394;-62
2022/10/29 02:45:15;;;;;;;15.40;3.97;;;;;;;;;;5032879;28;20037;-62
2022/10/29 02:47:41;;;;;;;15.15;4.75;;;;;;;;;;5032503;28;20437;-62
2022/10/29 02:50:08;;;;;;;13.52;3.67;;;;;;;;;;5022193;28;20034;-62
2022/10/29 02:52:34;;;;;;;16.25;4.10;;;;;;;;;;5018154;28;20033;-62
2022/10/29 02:55:00;;;;;;;13.73;3.78;;;;;;;;;;5012705;28;20025;-62
2022/10/29 02:57:26;;;;;;;11.48;3.33;;;;;;;;;;5012734;28;20038;-62
2022/10/29 02:59:52;;;;;;;16.58;3.38;;;;;;;;;;5026790;28;20429;-62
2022/10/29 03:02:18;;;;;;;19.85;3.60;;;;;;;;;;5014260;28;20036;-62
2022/10/29 03:04:44;;;;;;;14.63;2.88;;;;;;;;;;5017730;28;20091;-62
2022/10/29 03:07:10;;;;;;;23.02;4.63;;;;;;;;;;5021301;28;20137;-62
2022/10/29 03:09:36;;;;;;;12.30;4.38;;;;;;;;;;5012318;28;20399;-62
2022/10/29 03:12:02;;;;;;;16.08;3.50;;;;;;;;;;5010460;28;20026;-62
2022/10/29 03:14:29;;;;;;;16.45;4.35;;;;;;;;;;5011726;28;20022;-62
2022/10/29 03:16:55;;;;;;;14.73;3.70;;;;;;;;;;5011026;28;20030;-62
2022/10/29 03:19:21;;;;;;;14.85;3.88;;;;;;;;;;5012032;28;20026;-62
2022/10/29 03:21:47;;;;;;;12.02;3.00;;;;;;;;;;5012672;28;20037;-63
2022/10/29 03:24:13;;;;;;;17.38;3.42;;;;;;;;;;5012042;28;20710;-61
2022/10/29 03:26:39;;;;;;;12.77;4.80;;;;;;;;;;5012394;28;20099;-62
2022/10/29 03:29:05;;;;;;;18.45;3.55;;;;;;;;;;5011887;28;20068;-62
2022/10/29 03:31:31;;;;;;;13.30;4.78;;;;;;;;;;5011726;28;20542;-62
2022/10/29 03:33:57;;;;;;;16.60;4.47;;;;;;;;;;5012041;28;20018;-62
2022/10/29 03:36:23;;;;;;;18.17;3.63;;;;;;;;;;5012304;28;20033;-62
2022/10/29 03:38:49;;;;;;;17.00;4.35;;;;;;;;;;5014443;28;20462;-62
2022/10/29 03:41:15;;;;;;;20.38;4.13;;;;;;;;;;5013334;28;20026;-62
2022/10/29 03:43:41;;;;;;;13.18;3.50;;;;;;;;;;5014496;28;21560;-62
2022/10/29 03:46:08;;;;;;;17.02;3.85;;;;;;;;;;5014116;28;20084;-62
2022/10/29 03:48:34;;;;;;;12.73;3.40;;;;;;;;;;5026065;28;20101;-62
2022/10/29 03:51:01;;;;;;;20.50;4.15;;;;;;;;;;5016155;28;20438;-62
2022/10/29 03:53:28;;;;;;;16.60;3.80;;;;;;;;;;5015654;28;20030;-62
2022/10/29 03:55:55;;;;;;;14.27;3.95;;;;;;;;;;5014779;28;20394;-62
2022/10/29 03:58:21;;;;;;;21.80;4.18;;;;;;;;;;5014987;28;20121;-62
2022/10/29 04:00:58;;;;;;;19.40;3.70;;;;;;;;;;5014358;28;20026;-62
2022/10/29 04:03:25;;;;;;;16.00;4.00;;;;;;;;;;5014281;28;20061;-62
2022/10/29 04:05:51;;;;;;;14.27;4.13;;;;;;;;;;5015726;28;20034;-63
2022/10/29 04:08:17;;;;;;;18.98;4.43;;;;;;;;;;5014946;28;20047;-62
2022/10/29 04:10:47;;;;;;;18.52;4.35;;;;;;;;;;5014988;28;20049;-62
2022/10/29 04:13:13;;;;;;;16.90;4.85;;;;;;;;;;5015410;28;20116;-62
2022/10/29 04:15:40;;;;;;;20.83;4.30;;;;;;;;;;5014886;28;20505;-62
2022/10/29 04:18:06;;;;;;;15.35;4.30;;;;;;;;;;5015665;28;20093;-62
2022/10/29 04:20:32;;;;;;;19.80;4.45;;;;;;;;;;5013765;28;20041;-62
2022/10/29 04:22:58;;;;;;;13.90;4.32;;;;;;;;;;5014840;28;20046;-62
2022/10/29 04:25:24;;;;;;;16.92;4.05;;;;;;;;;;5015296;28;20095;-62
2022/10/29 04:27:53;;;;;;;25.38;5.22;;;;;;;;;;5014421;28;20026;-62
2022/10/29 04:30:19;;;;;;;12.95;3.97;;;;;;;;;;5014120;28;20083;-62
2022/10/29 04:32:45;;;;;;;17.40;3.63;;;;;;;;;;5015140;28;20041;-62
2022/10/29 04:35:11;;;;;;;16.98;3.75;;;;;;;;;;5011187;28;20029;-63
2022/10/29 04:37:37;;;;;;;21.23;4.20;;;;;;;;;;5014836;28;20030;-62
2022/10/29 04:40:04;;;;;;;21.17;5.10;;;;;;;;;;5014876;28;20041;-62
2022/10/29 04:42:34;;;;;;;22.85;4.47;;;;;;;;;;5014659;28;20033;-62
2022/10/29 04:45:00;;;;;;;17.38;4.70;;;;;;;;;;5017827;28;20036;-62
2022/10/29 04:47:28;;;;;;;16.50;4.22;;;;;;;;;;5016278;28;20044;-62
2022/10/29 04:49:54;;;;;;;28.83;6.13;;;;;;;;;;5013152;28;20065;-62
2022/10/29 04:52:20;;;;;;;17.63;4.18;;;;;;;;;;5018205;28;20505;-63
2022/10/29 04:54:46;;;;;;;20.15;4.88;;;;;;;;;;5013243;28;20018;-63
2022/10/29 04:57:12;;;;;;;22.40;4.47;;;;;;;;;;5018604;28;20056;-63
2022/10/29 04:59:38;;;;;;;14.60;3.53;;;;;;;;;;5020250;28;20057;-63
2022/10/29 05:02:04;;;;;;;23.73;4.72;;;;;;;;;;5013116;28;20037;-63
2022/10/29 05:04:30;;;;;;;20.60;4.22;;;;;;;;;;5020893;28;20025;-63
2022/10/29 05:06:57;;;;;;;11.38;3.72;;;;;;;;;;5013515;28;20559;-63
2022/10/29 05:09:23;;;;;;;20.55;4.57;;;;;;;;;;5013066;28;20054;-63
2022/10/29 05:11:49;;;;;;;11.60;3.50;;;;;;;;;;5012589;28;20037;-63
2022/10/29 05:14:15;;;;;;;12.80;3.67;;;;;;;;;;5017998;28;20563;-63
2022/10/29 05:16:41;;;;;;;21.17;4.63;;;;;;;;;;5018877;28;20033;-63
2022/10/29 05:19:07;;;;;;;22.25;4.45;;;;;;;;;;5012746;28;20030;-63
2022/10/29 05:21:33;;;;;;;23.10;4.68;;;;;;;;;;5012582;28;20036;-63
2022/10/29 05:24:00;;;;;;;22.50;4.13;;;;;;;;;;5014132;28;20034;-63
2022/10/29 05:26:26;;;;;;;22.58;4.53;;;;;;;;;;5013726;28;20033;-63
2022/10/29 05:28:52;;;;;;;14.13;3.47;;;;;;;;;;5013191;28;20076;-63
2022/10/29 05:31:18;;;;;;;19.00;4.43;;;;;;;;;;5014009;28;20033;-64
2022/10/29 05:33:44;;;;;;;18.77;4.05;;;;;;;;;;5013889;28;20447;-65
2022/10/29 05:36:10;;;;;;;22.08;5.10;;;;;;;;;;5015250;28;20068;-64
2022/10/29 05:38:36;;;;;;;19.42;4.72;;;;;;;;;;5013386;28;20017;-63
2022/10/29 05:41:03;;;;;;;23.63;4.60;;;;;;;;;;5012876;28;20029;-63
2022/10/29 05:43:29;;;;;;;22.20;3.85;;;;;;;;;;5013561;28;20045;-63
2022/10/29 05:45:55;;;;;;;19.30;3.17;;;;;;;;;;5013663;28;20116;-63
2022/10/29 05:48:21;;;;;;;23.25;4.43;;;;;;;;;;5010487;28;20044;-63
2022/10/29 05:50:47;;;;;;;17.90;3.33;;;;;;;;;;5012242;28;20061;-63
2022/10/29 05:53:14;;;;;;;20.75;3.80;;;;;;;;;;5012468;28;20072;-63
2022/10/29 05:55:41;;;;;;;14.40;4.03;;;;;;;;;;5011309;28;20053;-63
2022/10/29 05:58:11;;;;;;;10.63;3.15;;;;;;;;;;5012820;28;20053;-63
2022/10/29 06:00:38;;;;;;;20.40;3.95;;;;;;;;;;5010742;28;20022;-63
2022/10/29 06:03:09;;;;;;;18.33;4.28;;;;;;;;;;5011015;28;20026;-63
2022/10/29 06:05:35;;;;;;;19.17;3.72;;;;;;;;;;5009547;28;20084;-63
2022/10/29 06:08:01;;;;;;;18.55;4.47;;;;;;;;;;5012531;28;20076;-63
2022/10/29 06:10:28;;;;;;;19.45;4.05;;;;;;;;;;5011831;28;20498;-63
2022/10/29 06:12:54;;;;;;;19.65;3.85;;;;;;;;;;5007866;28;20087;-63
2022/10/29 06:15:21;;;;;;;19.55;3.42;;;;;;;;;;5012033;28;20099;-63
2022/10/29 06:17:48;;;;;;;11.82;3.78;;;;;;;;;;5011120;28;20068;-63
2022/10/29 06:20:15;;;;;;;24.75;4.45;;;;;;;;;;5011001;28;20057;-63
2022/10/29 06:22:41;;;;;;;22.05;4.15;;;;;;;;;;5010888;28;20034;-63
2022/10/29 06:25:08;;;;;;;13.55;3.65;;;;;;;;;;5011184;28;20109;-63
2022/10/29 06:27:35;;;;;;;15.68;4.63;;;;;;;;;;5011785;28;20495;-63
2022/10/29 06:30:01;;;;;;;17.55;4.20;;;;;;;;;;5013393;28;20029;-63
2022/10/29 06:32:27;;;;;;;17.27;3.78;;;;;;;;;;5012487;28;20038;-63
2022/10/29 06:34:53;;;;;;;12.85;3.90;;;;;;;;;;5012358;28;20026;-63
2022/10/29 06:37:19;;;;;;;16.67;3.47;;;;;;;;;;5012462;28;20022;-63
2022/10/29 06:39:45;;;;;;;11.27;3.92;;;;;;;;;;5012008;28;20018;-63
2022/10/29 06:42:11;;;;;;;18.30;3.92;;;;;;;;;;5012493;28;20092;-63
2022/10/29 06:44:37;;;;;;;17.98;4.50;;;;;;;;;;5010497;28;20494;-63
2022/10/29 06:47:04;;;;;;;12.27;3.90;;;;;;;;;;5011579;28;20048;-63
2022/10/29 06:49:30;;;;;;;18.55;4.40;;;;;;;;;;5012616;28;20022;-63
2022/10/29 06:51:56;;;;;;;20.17;4.45;;;;;;;;;;5008356;28;20398;-63
2022/10/29 06:54:22;;;;;;;13.35;3.90;;;;;;;;;;5012207;28;20057;-63
2022/10/29 06:56:48;;;;;;;24.25;4.50;;;;;;;;;;5009220;28;20026;-63
2022/10/29 06:59:15;;;;;;;13.65;3.40;;;;;;;;;;5011312;28;20022;-63
2022/10/29 07:01:41;;;;;;;19.50;4.85;;;;;;;;;;5011381;28;20717;-63
2022/10/29 07:04:07;;;;;;;22.23;4.13;;;;;;;;;;5012180;28;20458;-63
2022/10/29 07:06:33;;;;;;;16.60;4.13;;;;;;;;;;5012175;28;20018;-63
2022/10/29 07:08:59;;;;;;;15.90;3.95;;;;;;;;;;5009001;28;20380;-63
2022/10/29 07:11:25;;;;;;;12.43;3.20;;;;;;;;;;5010207;28;20030;-63
2022/10/29 07:13:51;;;;;;;18.17;4.38;;;;;;;;;;5012226;28;20150;-64
2022/10/29 07:16:17;;;;;;;20.02;4.60;;;;;;;;;;5011626;28;20030;-64
2022/10/29 07:18:44;;;;;;;19.23;4.90;;;;;;;;;;5014653;28;20037;-63
2022/10/29 07:21:10;;;;;;;14.55;3.83;;;;;;;;;;5014216;28;20097;-63
2022/10/29 07:23:36;;;;;;;14.65;3.88;;;;;;;;;;5013112;28;20371;-63
2022/10/29 07:26:02;;;;;;;15.32;4.13;;;;;;;;;;5015715;28;20030;-63
2022/10/29 07:28:28;;;;;;;23.00;3.63;;;;;;;;;;5014606;28;20037;-63
2022/10/29 07:31:00;;;;;;;18.85;3.80;;;;;;;;;;5015735;28;20046;-63
2022/10/29 07:33:29;;;;;;;20.93;4.17;;;;;;;;;;5014608;28;20037;-63
2022/10/29 07:35:57;;;;;;;15.52;5.03;;;;;;;;;;5015069;28;20261;-63
2022/10/29 07:38:23;;;;;;;20.95;4.15;;;;;;;;;;5014764;28;20033;-63
2022/10/29 07:40:50;;;;;;;18.63;3.88;;;;;;;;;;5012264;28;20030;-63
2022/10/29 07:43:17;;;;;;;18.02;3.92;;;;;;;;;;5010136;28;20072;-63
2022/10/29 07:45:48;;;;;;;22.63;4.85;;;;;;;;;;5013772;28;20026;-63
2022/10/29 07:48:14;;;;;;;18.00;4.22;;;;;;;;;;5014548;28;20091;-63
2022/10/29 07:50:41;;;;;;;20.95;4.15;;;;;;;;;;5014459;28;20104;-63
2022/10/29 07:53:07;;;;;;;19.38;3.92;;;;;;;;;;5012881;28;20030;-63
2022/10/29 07:55:34;;;;;;;22.23;4.38;;;;;;;;;;5014615;28;20029;-63
2022/10/29 07:58:01;;;;;;;18.38;4.30;;;;;;;;;;5015116;28;20435;-63
2022/10/29 08:00:28;;;;;;;18.33;4.38;;;;;;;;;;5012632;28;20024;-63
2022/10/29 08:02:54;;;;;;;28.25;5.07;;;;;;;;;;5011797;28;20032;-63
2022/10/29 08:05:21;;;;;;;16.67;5.15;;;;;;;;;;5015788;28;20040;-63
2022/10/29 08:07:47;;;;;;;17.13;5.20;;;;;;;;;;5014846;28;20434;-63
2022/10/29 08:10:13;;;;;;;21.70;5.78;;;;;;;;;;5014143;28;20038;-63
2022/10/29 08:12:39;;;;;;;17.35;4.57;;;;;;;;;;5010432;28;20022;-63
2022/10/29 08:15:05;;;;;;;21.67;4.75;;;;;;;;;;5014350;28;20038;-63
2022/10/29 08:17:32;;;;;;;16.98;4.93;;;;;;;;;;5014546;28;20356;-63
2022/10/29 08:19:58;;;;;;;18.80;5.00;;;;;;;;;;5012286;28;20394;-63
2022/10/29 08:22:24;;;;;;;20.30;5.50;;;;;;;;;;5010863;28;20034;-63
2022/10/29 08:24:50;;;;;;;18.42;4.85;;;;;;;;;;5012782;28;20541;-63
2022/10/29 08:27:16;;;;;;;21.13;4.57;;;;;;;;;;5011134;28;20076;-63
2022/10/29 08:29:42;;;;;;;26.92;6.20;;;;;;;;;;5014899;28;20462;-64
2022/10/29 08:32:08;;;;;;;19.25;4.95;;;;;;;;;;5010720;28;20034;-63
2022/10/29 08:34:34;;;;;;;24.33;4.53;;;;;;;;;;5011577;28;20080;-63
2022/10/29 08:37:01;;;;;;;35.80;5.82;;;;;;;;;;5011936;28;20038;-63
2022/10/29 08:39:27;;;;;;;25.90;5.65;;;;;;;;;;5014400;28;20466;-63
2022/10/29 08:42:18;;;;;;;25.80;6.00;;;;;;;;;;5024831;28;20036;-63
2022/10/29 08:44:50;;;;;;;28.52;5.22;;;;;;;;;;5014265;28;20026;-63
2022/10/29 08:47:19;;;;;;;24.70;5.65;;;;;;;;;;5017316;28;20029;-63
2022/10/29 08:49:54;;;;;;;30.20;6.25;;;;;;;;;;5014562;28;20026;-62
2022/10/29 08:52:26;;;;;;;16.45;5.10;;;;;;;;;;5013522;28;20367;-65
2022/10/29 08:54:52;;;;;;;;;;;;;;;;;;5013488;28;20437;-63
2022/10/29 08:57:21;;;;;;;14.80;5.43;;;;;;;;;;5014670;28;19917;-63
2022/10/29 08:59:53;;;;;;;20.23;5.20;;;;;;;;;;5012271;28;20025;-63
2022/10/29 09:02:19;;;;;;;20.53;5.93;;;;;;;;;;5012605;28;20038;-63
2022/10/29 09:04:45;;;;;;;21.58;5.50;;;;;;;;;;5014768;28;20037;-63
2022/10/29 09:07:32;;;;;;;15.65;5.18;;;;;;;;;;5014446;28;20084;-63
2022/10/29 09:10:10;;;;;;;22.80;5.18;;;;;;;;;;5017111;28;20049;-63
2022/10/29 09:12:47;;;;;;;23.55;5.50;;;;;;;;;;5015003;28;20037;-63
2022/10/29 09:15:31;;;;;;;16.98;5.13;;;;;;;;;;5024083;28;20026;-63
2022/10/29 09:18:00;;;;;;;17.45;5.60;;;;;;;;;;5015661;28;20041;-64
2022/10/29 09:20:36;;;;;;;22.60;5.57;;;;;;;;;;5013107;28;20433;-63
2022/10/29 09:23:05;;;;;;;19.38;4.88;;;;;;;;;;5025469;28;20469;-63
2022/10/29 09:25:53;;;;;;;24.88;5.57;;;;;;;;;;5015125;28;20025;-63
2022/10/29 09:28:31;;;;;;;18.90;5.53;;;;;;;;;;5020353;28;20418;-63
2022/10/29 09:31:00;;;;;;;25.45;5.45;;;;;;;;;;5016385;28;20034;-63
2022/10/29 09:33:26;;;;;;;25.52;6.50;;;;;;;;;;5012439;28;20034;-63
2022/10/29 09:35:53;;;;;;;20.13;5.93;;;;;;;;;;5012874;28;20030;-63
2022/10/29 09:38:25;;;;;;;22.70;6.38;;;;;;;;;;5020122;28;20368;-63
2022/10/29 09:40:51;;;;;;;20.55;5.82;;;;;;;;;;5016968;28;20044;-63
2022/10/29 09:43:24;;;;;;;27.92;6.88;;;;;;;;;;5019719;28;20038;-63
2022/10/29 09:45:50;;;;;;;;;;;;;;;;;;5024277;28;20045;-63
2022/10/29 09:48:16;;;;;;;21.40;5.88;;;;;;;;;;5015416;28;19905;-63
2022/10/29 09:50:53;;;;;;;22.27;5.30;;;;;;;;;;5019559;28;20036;-63
2022/10/29 09:53:19;;;;;;;21.00;5.93;;;;;;;;;;5013910;28;20038;-63
2022/10/29 09:55:52;;;;;;;21.10;6.18;;;;;;;;;;5013761;28;20018;-63
2022/10/29 09:58:18;;;;;;;;;;;;;;;;;;5019665;28;20024;-63
2022/10/29 10:00:44;;;;;;;20.75;5.38;;;;;;;;;;5022207;28;20011;-63
2022/10/29 10:03:15;;;;;;;16.38;5.70;;;;;;;;;;5023226;28;20083;-63
2022/10/29 10:06:00;;;;;;;23.58;6.85;;;;;;;;;;5016668;28;20498;-63
2022/10/29 10:08:26;;;;;;;21.42;6.85;;;;;;;;;;5018967;28;20500;-63
2022/10/29 10:10:54;;;;;;;19.48;5.38;;;;;;;;;;5012644;28;20506;-63
2022/10/29 10:13:22;;;;;;;16.77;5.55;;;;;;;;;;5017683;28;20041;-63
2022/10/29 10:15:54;;;;;;;16.98;4.60;;;;;;;;;;5012749;28;20046;-63
2022/10/29 10:18:22;;;;;;;13.50;4.05;;;;;;;;;;5015094;28;20441;-63
2022/10/29 10:20:59;;;;;;;20.45;3.92;;;;;;;;;;5026352;28;20076;-63
2022/10/29 10:23:27;;;;;;;16.70;4.60;;;;;;;;;;5015029;28;20058;-63
2022/10/29 10:25:57;;;;;;;17.90;3.85;;;;;;;;;;5019638;28;20363;-63
2022/10/29 10:28:30;;;;;;;17.27;5.00;;;;;;;;;;5004525;28;20442;-63
2022/10/29 10:31:05;;;;;;;15.52;3.45;;;;;;;;;;5010097;28;20026;-63
2022/10/29 10:33:36;;;;;;;12.68;3.70;;;;;;;;;;5014217;28;20033;-63
2022/10/29 10:36:06;;;;;;;12.30;4.63;;;;;;;;;;5018019;28;20034;-63
2022/10/29 10:38:46;;;;;;;14.60;3.90;;;;;;;;;;5012379;28;20029;-63
2022/10/29 10:41:13;;;;;;;16.10;3.42;;;;;;;;;;5000858;28;20413;-67
2022/10/29 10:43:42;;;;;;;15.27;4.18;;;;;;;;;;5008234;28;20037;-64
2022/10/29 10:46:13;;;;;;;25.40;4.72;;;;;;;;;;5013789;28;20516;-64
2022/10/29 10:48:39;;;;;;;15.15;4.00;;;;;;;;;;5017575;28;20502;-63
2022/10/29 10:51:10;;;;;;;19.63;3.70;;;;;;;;;;5012803;28;20022;-63
2022/10/29 10:53:39;;;;;;;11.43;3.50;;;;;;;;;;5020960;28;20033;-63
2022/10/29 10:56:06;;;;;;;23.13;4.32;;;;;;;;;;5020852;28;20057;-63
2022/10/29 10:58:38;;;;;;;20.98;4.47;;;;;;;;;;5017612;28;20030;-63
2022/10/29 11:01:09;;;;;;;24.05;5.95;;;;;;;;;;5016490;28;20030;-63
2022/10/29 11:03:40;;;;;;;15.38;3.80;;;;;;;;;;5015399;28;20042;-64
2022/10/29 11:06:09;;;;;;;21.73;4.65;;;;;;;;;;5013328;28;20064;-64
2022/10/29 11:08:54;;;;;;;18.35;5.30;;;;;;;;;;5011164;28;20069;-63
2022/10/29 11:11:26;;;;;;;18.63;4.05;;;;;;;;;;5015081;28;20111;-64
2022/10/29 11:13:53;;;;;;;19.70;5.20;;;;;;;;;;5017143;28;20030;-64
2022/10/29 11:16:19;;;;;;;16.10;4.70;;;;;;;;;;5017816;28;20021;-63
2022/10/29 11:18:49;;;;;;;19.25;5.70;;;;;;;;;;5017909;28;20026;-63
2022/10/29 11:21:34;;;;;;;17.60;5.70;;;;;;;;;;5016451;28;20466;-63
2022/10/29 11:24:01;;;;;;;17.33;5.57;;;;;;;;;;5021064;28;20038;-63
2022/10/29 11:26:30;;;;;;;19.15;5.68;;;;;;;;;;5018895;28;20401;-63
2022/10/29 11:28:59;;;;;;;20.48;6.28;;;;;;;;;;5021012;28;20021;-63
2022/10/29 11:31:34;;;;;;;19.55;6.55;;;;;;;;;;5011497;28;20084;-63
2022/10/29 11:34:04;;;;;;;29.77;5.28;;;;;;;;;;5018710;28;20037;-63
2022/10/29 11:36:34;;;;;;;23.27;4.78;;;;;;;;;;5012598;28;20041;-63
2022/10/29 11:39:23;;;;;;;25.67;6.07;;;;;;;;;;5016305;28;20044;-63
2022/10/29 11:41:59;;;;;;;25.80;6.68;;;;;;;;;;5018709;28;20046;-63
2022/10/29 11:44:26;;;;;;;19.40;6.20;;;;;;;;;;5004391;28;20033;-63
2022/10/29 11:46:52;;;;;;;12.55;4.78;;;;;;;;;;5016879;28;20034;-63
2022/10/29 11:49:30;;;;;;;18.20;4.15;;;;;;;;;;5017674;28;20088;-63
2022/10/29 11:52:13;;;;;;;23.92;4.50;;;;;;;;;;5017063;28;20042;-63
2022/10/29 11:54:43;;;;;;;16.25;3.47;;;;;;;;;;5014494;28;20050;-63
2022/10/29 11:57:28;;;;;;;14.98;3.85;;;;;;;;;;5020132;28;20097;-63
2022/10/29 12:00:14;;;;;;;20.15;4.35;;;;;;;;;;5024904;28;20028;-63
2022/10/29 12:02:49;;;;;;;18.67;4.15;;;;;;;;;;5021673;28;20060;-63
2022/10/29 12:05:22;;;;;;;13.57;3.40;;;;;;;;;;5012903;28;20018;-63
2022/10/29 12:07:56;;;;;;;13.00;3.95;;;;;;;;;;5015591;28;20030;-64
2022/10/29 12:10:31;;;;;;;13.82;3.85;;;;;;;;;;5024751;28;20394;-64
2022/10/29 12:13:04;;;;;;;15.48;3.83;;;;;;;;;;5029748;28;20104;-63
2022/10/29 12:15:42;;;;;;;12.02;2.92;;;;;;;;;;5026424;28;20034;-66
2022/10/29 12:18:23;;;;;;;15.43;3.47;;;;;;;;;;5032089;28;20116;-66
2022/10/29 12:20:53;;;;;;;17.88;3.58;;;;;;;;;;5021033;28;20033;-66
2022/10/29 12:23:28;;;;;;;13.45;3.50;;;;;;;;;;5012203;28;20034;-65
2022/10/29 12:26:08;;;;;;;17.85;4.28;;;;;;;;;;5011457;28;20045;-66
2022/10/29 12:28:52;;;;;;;17.45;4.53;;;;;;;;;;5008422;28;20033;-65
2022/10/29 12:31:23;;;;;;;13.63;3.03;;;;;;;;;;5014795;28;20021;-64
2022/10/29 12:34:09;;;;;;;12.82;2.88;;;;;;;;;;5012900;28;20072;-63
2022/10/29 12:36:38;;;;;;;12.82;3.38;;;;;;;;;;5031313;28;20037;-63
2022/10/29 12:39:05;;;;;;;13.70;2.58;;;;;;;;;;5032707;28;20030;-65
2022/10/29 12:41:34;;;;;;;9.32;2.47;;;;;;;;;;5029527;28;20052;-63
2022/10/29 12:44:20;;;;;;;12.23;2.67;;;;;;;;;;5029291;28;20029;-63
2022/10/29 12:46:58;;;;;;;13.95;2.42;;;;;;;;;;4916928;29;20095;-63
2022/10/29 12:49:37;;;;;;;9.00;2.72;;;;;;;;;;4914804;29;20063;-64
2022/10/29 12:52:06;;;;;;;7.47;1.77;;;;;;;;;;4916348;29;20044;-65
2022/10/29 12:54:36;;;;;;;10.40;2.10;;;;;;;;;;4918493;29;20063;-64
2022/10/29 12:57:04;;;;;;;7.97;1.67;;;;;;;;;;4918057;29;20056;-64
2022/10/29 12:59:32;;;;;;;39.53;9.15;;;;;;;;;;4917269;29;20516;-64
2022/10/29 13:02:13;;;;;;;8.43;2.88;;;;;;;;;;4915815;29;20526;-63
2022/10/29 13:04:59;;;;;;;7.13;3.00;;;;;;;;;;4916554;29;20435;-62
2022/10/29 13:07:25;;;;;;;9.20;1.65;;;;;;;;;;4916675;29;20063;-65
2022/10/29 13:10:11;;;;;;;8.82;1.90;;;;;;;;;;4913462;29;20048;-64
2022/10/29 13:13:09;;;;;;;9.85;1.80;;;;;;;;;;4914819;29;20685;-64
2022/10/29 13:15:42;;;;;;;6.82;1.70;;;;;;;;;;4895042;29;20068;-64
2022/10/29 13:18:14;;;;;;;10.48;1.63;;;;;;;;;;4895466;29;20487;-64
2022/10/29 13:20:41;;;;;;;8.27;1.63;;;;;;;;;;4894704;29;20036;-64
2022/10/29 13:23:22;;;;;;;5.30;1.63;;;;;;;;;;4906478;29;20042;-65
2022/10/29 13:25:48;;;;;;;8.20;1.92;;;;;;;;;;4952125;28;20046;-64
2022/10/29 13:28:14;;;;;;;8.63;1.98;;;;;;;;;;4952832;28;20495;-64
2022/10/29 13:30:45;;;;;;;8.45;1.60;;;;;;;;;;4952721;28;20178;-65
2022/10/29 13:33:27;;;;;;;9.35;2.17;;;;;;;;;;4942684;28;20039;-65
2022/10/29 13:35:57;;;;;;;7.38;2.22;;;;;;;;;;4949096;28;20831;-64
2022/10/29 13:38:41;;;;;;;9.27;1.52;;;;;;;;;;4952749;28;20086;-64
2022/10/29 13:41:10;;;;;;;6.25;1.20;;;;;;;;;;4952243;28;20027;-64
2022/10/29 13:43:37;;;;;;;6.65;1.77;;;;;;;;;;4953224;28;20137;-64
2022/10/29 13:46:23;;;;;;;6.20;1.98;;;;;;;;;;4952326;28;20054;-64
2022/10/29 13:48:50;;;;;;;6.55;1.67;;;;;;;;;;4949516;28;21060;-64
2022/10/29 13:51:19;;;;;;;6.95;1.70;;;;;;;;;;4980795;28;20045;-64
2022/10/29 13:53:54;;;;;;;6.15;1.45;;;;;;;;;;5007093;28;20025;-64
2022/10/29 13:56:25;;;;;;;6.25;1.63;;;;;;;;;;5009733;28;20079;-64
2022/10/29 13:58:52;;;;;;;10.23;1.70;;;;;;;;;;5010716;28;20379;-64
2022/10/29 14:01:19;;;;;;;4.72;1.27;;;;;;;;;;5011783;28;20073;-68
2022/10/29 14:03:51;;;;;;;6.85;1.48;;;;;;;;;;5010409;28;20034;-65
2022/10/29 14:06:25;;;;;;;6.18;1.60;;;;;;;;;;5012698;28;20130;-64
2022/10/29 14:09:17;;;;;;;7.13;2.17;;;;;;;;;;5009646;28;20041;-64
2022/10/29 14:11:45;;;;;;;3.72;1.35;;;;;;;;;;5014407;28;20033;-64
2022/10/29 14:14:22;;;;;;;5.95;1.48;;;;;;;;;;5014261;28;20043;-64
2022/10/29 14:16:48;;;;;;;18.33;1.65;;;;;;;;;;5014674;28;20038;-64
2022/10/29 14:19:18;;;;;;;6.90;1.58;;;;;;;;;;5014125;28;20439;-64
2022/10/29 14:21:44;;;;;;;8.82;1.98;;;;;;;;;;5011708;28;20391;-64
2022/10/29 14:24:14;;;;;;;4.18;1.77;;;;;;;;;;5012475;28;20025;-64
2022/10/29 14:26:41;;;;;;;10.57;2.72;;;;;;;;;;5009860;28;20438;-64
2022/10/29 14:29:12;;;;;;;8.85;1.90;;;;;;;;;;5011156;28;20447;-64
2022/10/29 14:31:38;;;;;;;10.27;1.63;;;;;;;;;;5012863;28;20541;-64
2022/10/29 14:34:06;;;;;;;6.47;1.73;;;;;;;;;;5010184;28;20030;-64
2022/10/29 14:36:37;;;;;;;8.77;2.05;;;;;;;;;;5008733;28;20061;-64
2022/10/29 14:39:12;;;;;;;5.43;1.55;;;;;;;;;;5012504;28;20018;-65
2022/10/29 14:41:38;;;;;;;8.77;1.75;;;;;;;;;;5009701;28;20037;-64
2022/10/29 14:44:07;;;;;;;9.23;1.40;;;;;;;;;;5011427;28;20109;-64
2022/10/29 14:46:37;;;;;;;4.88;1.65;;;;;;;;;;5012144;28;20032;-64